createdAt,value
2023-04-15T00:00:01.741Z,43.80
2023-04-15T00:02:28.491Z,43.55
2023-04-15T00:04:55.006Z,43.66
2023-04-15T00:07:21.533Z,43.61
2023-04-15T00:09:47.840Z,43.60
2023-04-15T00:12:14.215Z,43.52
2023-04-15T00:14:40.690Z,43.71
2023-04-15T00:17:06.982Z,43.65
2023-04-15T00:19:33.358Z,43.47
2023-04-15T00:21:59.731Z,43.59
2023-04-15T00:24:26.028Z,43.41
2023-04-15T00:26:52.487Z,43.90
2023-04-15T00:29:18.928Z,43.68
2023-04-15T00:31:45.553Z,43.60
2023-04-15T00:34:11.936Z,43.81
2023-04-15T00:36:38.254Z,43.71
2023-04-15T00:39:04.632Z,43.56
2023-04-15T00:41:31.093Z,43.74
2023-04-15T00:43:57.403Z,43.75
2023-04-15T00:46:23.740Z,43.87
2023-04-15T00:48:50.168Z,43.87
2023-04-15T00:51:16.556Z,43.71
2023-04-15T00:53:42.897Z,43.93
2023-04-15T00:56:09.263Z,43.94
2023-04-15T00:58:35.614Z,43.86
2023-04-15T01:01:01.973Z,43.85
2023-04-15T01:03:29.454Z,44.00
2023-04-15T01:05:55.885Z,43.86
2023-04-15T01:08:22.501Z,43.97
2023-04-15T01:10:48.946Z,44.07
2023-04-15T01:13:15.256Z,43.63
2023-04-15T01:15:41.592Z,43.96
2023-04-15T01:18:07.974Z,44.02
2023-04-15T01:20:37.184Z,44.10
2023-04-15T01:23:03.517Z,43.97
2023-04-15T01:25:29.950Z,44.04
2023-04-15T01:27:56.307Z,43.99
2023-04-15T01:30:22.645Z,44.05
2023-04-15T01:32:49.067Z,44.19
2023-04-15T01:35:15.415Z,44.09
2023-04-15T01:37:41.733Z,43.84
2023-04-15T01:40:08.581Z,44.04
2023-04-15T01:42:35.708Z,44.21
2023-04-15T01:45:02.024Z,43.98
2023-04-15T01:47:28.422Z,44.10
2023-04-15T01:49:54.782Z,44.19
2023-04-15T01:52:21.742Z,43.99
2023-04-15T01:54:48.161Z,44.22
2023-04-15T01:57:14.516Z,43.93
2023-04-15T01:59:40.849Z,44.20
2023-04-15T02:02:07.256Z,44.30
2023-04-15T02:04:33.617Z,43.92
2023-04-15T02:06:59.940Z,44.03
2023-04-15T02:09:26.331Z,44.12
2023-04-15T02:11:52.665Z,44.21
2023-04-15T02:14:19.002Z,44.28
2023-04-15T02:16:46.626Z,44.06
2023-04-15T02:19:15.565Z,44.20
2023-04-15T02:21:41.923Z,43.98
2023-04-15T02:24:08.279Z,43.94
2023-04-15T02:26:34.618Z,43.97
2023-04-15T02:29:01.421Z,44.06
2023-04-15T02:31:28.137Z,43.88
2023-04-15T02:33:54.626Z,43.86
2023-04-15T02:36:20.974Z,44.05
2023-04-15T02:38:47.325Z,43.86
2023-04-15T02:41:15.042Z,43.87
2023-04-15T02:43:42.151Z,44.01
2023-04-15T02:46:09.298Z,44.09
2023-04-15T02:48:35.646Z,43.90
2023-04-15T02:51:03.262Z,43.85
2023-04-15T02:53:29.638Z,43.99
2023-04-15T02:55:55.971Z,43.87
2023-04-15T02:58:22.303Z,43.90
2023-04-15T03:00:48.712Z,44.06
2023-04-15T03:03:15.242Z,44.12
2023-04-15T03:05:41.714Z,43.78
2023-04-15T03:08:08.145Z,44.09
2023-04-15T03:10:34.482Z,44.05
2023-04-15T03:13:01.522Z,43.73
2023-04-15T03:15:27.971Z,44.14
2023-04-15T03:17:54.756Z,44.03
2023-04-15T03:20:21.173Z,43.84
2023-04-15T03:22:48.416Z,44.05
2023-04-15T03:25:14.999Z,44.03
2023-04-15T03:27:42.382Z,44.11
2023-04-15T03:30:08.770Z,44.02
2023-04-15T03:32:37.103Z,43.74
2023-04-15T03:35:05.762Z,43.96
2023-04-15T03:37:32.129Z,43.93
2023-04-15T03:39:58.438Z,43.95
2023-04-15T03:42:24.758Z,44.13
2023-04-15T03:44:51.104Z,44.14
2023-04-15T03:47:17.545Z,44.03
2023-04-15T03:49:43.874Z,44.13
2023-04-15T03:52:10.228Z,44.11
2023-04-15T03:54:36.582Z,44.32
2023-04-15T03:57:02.960Z,44.15
2023-04-15T03:59:29.324Z,44.35
2023-04-15T04:01:55.742Z,44.00
2023-04-15T04:04:22.217Z,44.05
2023-04-15T04:06:48.664Z,44.13
2023-04-15T04:09:14.980Z,44.41
2023-04-15T04:11:41.305Z,44.15
2023-04-15T04:14:07.668Z,44.49
2023-04-15T04:16:34.001Z,44.24
2023-04-15T04:19:00.601Z,44.14
2023-04-15T04:21:27.077Z,44.12
2023-04-15T04:23:53.398Z,44.43
2023-04-15T04:26:19.826Z,44.27
2023-04-15T04:28:46.251Z,44.30
2023-04-15T04:31:12.562Z,44.55
2023-04-15T04:33:38.893Z,44.22
2023-04-15T04:36:05.268Z,44.59
2023-04-15T04:38:31.566Z,44.30
2023-04-15T04:40:57.933Z,44.72
2023-04-15T04:43:24.495Z,44.36
2023-04-15T04:45:50.881Z,44.45
2023-04-15T04:48:17.224Z,44.64
2023-04-15T04:50:43.581Z,44.78
2023-04-15T04:53:09.898Z,44.83
2023-04-15T04:55:36.198Z,44.78
2023-04-15T04:58:02.572Z,44.46
2023-04-15T05:00:28.960Z,44.70
2023-04-15T05:02:55.629Z,44.74
2023-04-15T05:05:22.141Z,44.36
2023-04-15T05:07:48.457Z,44.50
2023-04-15T05:10:14.909Z,44.46
2023-04-15T05:12:41.341Z,44.69
2023-04-15T05:15:07.655Z,44.53
2023-04-15T05:17:34.013Z,44.93
2023-04-15T05:20:00.455Z,44.73
2023-04-15T05:22:26.804Z,44.87
2023-04-15T05:24:53.130Z,44.57
2023-04-15T05:27:19.512Z,44.49
2023-04-15T05:29:45.844Z,44.46
2023-04-15T05:32:12.273Z,44.47
2023-04-15T05:34:38.644Z,44.55
2023-04-15T05:37:04.975Z,44.76
2023-04-15T05:39:31.301Z,44.43
2023-04-15T05:41:57.690Z,44.51
2023-04-15T05:44:24.013Z,44.72
2023-04-15T05:46:50.321Z,44.92
2023-04-15T05:49:16.741Z,44.56
2023-04-15T05:51:43.051Z,44.93
2023-04-15T05:54:09.344Z,44.63
2023-04-15T05:56:35.767Z,44.62
2023-04-15T05:59:02.357Z,44.68
2023-04-15T06:01:28.846Z,44.64
2023-04-15T06:03:55.422Z,44.56
2023-04-15T06:06:21.852Z,44.60
2023-04-15T06:08:48.194Z,44.79
2023-04-15T06:11:14.560Z,44.71
2023-04-15T06:13:40.864Z,45.00
2023-04-15T06:16:07.241Z,44.60
2023-04-15T06:18:33.645Z,44.87
2023-04-15T06:21:00.047Z,44.80
2023-04-15T06:23:27.944Z,44.73
2023-04-15T06:25:54.449Z,44.75
2023-04-15T06:28:20.767Z,44.68
2023-04-15T06:30:47.104Z,44.86
2023-04-15T06:33:13.462Z,44.70
2023-04-15T06:35:39.778Z,44.73
2023-04-15T06:38:06.078Z,44.74
2023-04-15T06:40:32.444Z,44.77
2023-04-15T06:42:58.793Z,44.50
2023-04-15T06:45:25.146Z,44.40
2023-04-15T06:47:51.561Z,44.58
2023-04-15T06:50:17.902Z,44.47
2023-04-15T06:52:44.273Z,44.24
2023-04-15T06:55:10.664Z,44.57
2023-04-15T06:57:36.995Z,44.39
2023-04-15T07:00:03.329Z,44.52
2023-04-15T07:02:31.104Z,44.42
2023-04-15T07:04:57.509Z,44.40
2023-04-15T07:07:23.848Z,44.24
2023-04-15T07:09:50.235Z,43.95
2023-04-15T07:12:16.560Z,43.86
2023-04-15T07:14:42.861Z,43.96
2023-04-15T07:17:09.329Z,43.84
2023-04-15T07:19:35.780Z,43.86
2023-04-15T07:22:02.125Z,43.67
2023-04-15T07:24:28.490Z,43.70
2023-04-15T07:26:54.806Z,43.44
2023-04-15T07:29:21.140Z,43.54
2023-04-15T07:31:47.576Z,43.48
2023-04-15T07:34:13.955Z,43.49
2023-04-15T07:36:40.296Z,43.17
2023-04-15T07:39:06.712Z,43.21
2023-04-15T07:41:33.024Z,43.03
2023-04-15T07:43:59.396Z,43.10
2023-04-15T07:46:25.816Z,43.19
2023-04-15T07:48:52.216Z,43.06
2023-04-15T07:51:18.566Z,42.86
2023-04-15T07:53:44.925Z,42.75
2023-04-15T07:56:11.282Z,42.58
2023-04-15T07:58:37.615Z,42.53
2023-04-15T08:01:03.997Z,42.47
2023-04-15T08:03:30.525Z,42.80
2023-04-15T08:05:57.016Z,42.76
2023-04-15T08:08:23.389Z,42.54
2023-04-15T08:10:52.025Z,42.64
2023-04-15T08:13:18.876Z,42.29
2023-04-15T08:15:45.329Z,42.25
2023-04-15T08:18:11.659Z,42.56
2023-04-15T08:20:38.141Z,42.41
2023-04-15T08:23:04.512Z,42.30
2023-04-15T08:25:30.931Z,42.22
2023-04-15T08:27:57.320Z,42.23
2023-04-15T08:30:23.682Z,42.24
2023-04-15T08:32:50.094Z,42.17
2023-04-15T08:35:16.501Z,42.03
2023-04-15T08:37:42.912Z,41.79
2023-04-15T08:40:09.297Z,41.73
2023-04-15T08:42:35.709Z,41.87
2023-04-15T08:45:02.156Z,41.67
2023-04-15T08:47:28.613Z,41.58
2023-04-15T08:49:55.038Z,41.50
2023-04-15T08:52:21.411Z,41.55
2023-04-15T08:54:47.824Z,41.42
2023-04-15T08:57:14.220Z,41.56
2023-04-15T08:59:40.610Z,41.15
2023-04-15T09:02:07.014Z,41.27
2023-04-15T09:04:33.434Z,41.50
2023-04-15T09:06:59.787Z,41.29
2023-04-15T09:09:26.095Z,40.99
2023-04-15T09:11:52.497Z,41.29
2023-04-15T09:14:18.910Z,40.87
2023-04-15T09:16:45.277Z,40.87
2023-04-15T09:19:11.746Z,40.95
2023-04-15T09:21:38.083Z,40.95
2023-04-15T09:24:04.539Z,40.58
2023-04-15T09:26:31.114Z,40.82
2023-04-15T09:28:57.544Z,40.94
2023-04-15T09:31:23.980Z,40.63
2023-04-15T09:33:50.426Z,40.84
2023-04-15T09:36:16.793Z,40.83
2023-04-15T09:38:43.119Z,40.59
2023-04-15T09:41:09.456Z,40.39
2023-04-15T09:43:35.833Z,40.64
2023-04-15T09:46:02.194Z,40.54
2023-04-15T09:48:28.548Z,40.34
2023-04-15T09:50:54.920Z,40.21
2023-04-15T09:53:21.241Z,40.14
2023-04-15T09:55:47.543Z,40.22
2023-04-15T09:58:13.921Z,39.95
2023-04-15T10:00:40.253Z,39.93
2023-04-15T10:03:06.669Z,40.03
2023-04-15T10:05:33.190Z,39.72
2023-04-15T10:07:59.496Z,39.90
2023-04-15T10:10:25.788Z,39.54
2023-04-15T10:12:52.140Z,39.57
2023-04-15T10:15:18.449Z,39.49
2023-04-15T10:17:44.849Z,39.21
2023-04-15T10:20:11.252Z,39.42
2023-04-15T10:22:37.586Z,39.30
2023-04-15T10:25:03.995Z,39.45
2023-04-15T10:27:30.392Z,39.21
2023-04-15T10:29:56.743Z,39.21
2023-04-15T10:32:23.141Z,39.44
2023-04-15T10:34:49.529Z,39.37
2023-04-15T10:37:15.855Z,39.21
2023-04-15T10:39:42.197Z,39.22
2023-04-15T10:42:08.598Z,39.07
2023-04-15T10:44:34.932Z,39.01
2023-04-15T10:47:01.296Z,38.90
2023-04-15T10:49:27.676Z,38.88
2023-04-15T10:51:54.005Z,38.84
2023-04-15T10:54:20.346Z,38.79
2023-04-15T10:56:46.707Z,38.94
2023-04-15T10:59:13.055Z,38.86
2023-04-15T11:01:39.401Z,38.79
2023-04-15T11:04:06.037Z,38.65
2023-04-15T11:06:32.617Z,38.65
2023-04-15T11:08:58.978Z,38.62
2023-04-15T11:11:25.368Z,38.34
2023-04-15T11:13:51.774Z,38.51
2023-04-15T11:16:19.330Z,38.66
2023-04-15T11:18:45.726Z,38.62
2023-04-15T11:21:12.041Z,38.76
2023-04-15T11:23:38.362Z,38.73
2023-04-15T11:26:04.754Z,38.66
2023-04-15T11:28:31.164Z,38.40
2023-04-15T11:30:57.486Z,38.53
2023-04-15T11:33:23.856Z,38.53
2023-04-15T11:35:50.206Z,38.43
2023-04-15T11:38:16.527Z,38.51
2023-04-15T11:40:45.274Z,38.14
2023-04-15T11:43:13.224Z,38.40
2023-04-15T11:45:39.622Z,38.22
2023-04-15T11:48:06.008Z,38.26
2023-04-15T11:50:32.341Z,38.41
2023-04-15T11:52:58.704Z,38.24
2023-04-15T11:55:25.078Z,38.24
2023-04-15T11:57:51.417Z,38.13
2023-04-15T12:00:17.748Z,38.00
2023-04-15T12:02:44.265Z,38.16
2023-04-15T12:05:10.766Z,38.09
2023-04-15T12:07:37.156Z,38.08
2023-04-15T12:10:05.790Z,38.17
2023-04-15T12:12:33.331Z,38.02
2023-04-15T12:14:59.681Z,37.77
2023-04-15T12:17:26.103Z,37.78
2023-04-15T12:19:52.413Z,37.84
2023-04-15T12:22:18.729Z,37.58
2023-04-15T12:24:45.109Z,37.56
2023-04-15T12:27:11.447Z,37.48
2023-04-15T12:29:37.793Z,37.33
2023-04-15T12:32:04.169Z,37.25
2023-04-15T12:34:30.532Z,37.16
2023-04-15T12:36:56.872Z,37.20
2023-04-15T12:39:23.376Z,37.31
2023-04-15T12:41:49.694Z,37.06
2023-04-15T12:44:16.015Z,37.27
2023-04-15T12:46:42.388Z,37.01
2023-04-15T12:49:08.736Z,37.08
2023-04-15T12:51:35.064Z,37.03
2023-04-15T12:54:01.523Z,37.00
2023-04-15T12:56:27.969Z,37.03
2023-04-15T12:58:54.326Z,37.13
2023-04-15T13:01:20.734Z,36.98
2023-04-15T13:03:47.252Z,36.79
2023-04-15T13:06:13.688Z,36.73
2023-04-15T13:08:42.641Z,36.81
2023-04-15T13:11:14.443Z,36.63
2023-04-15T13:13:40.815Z,36.79
2023-04-15T13:16:07.133Z,36.69
2023-04-15T13:18:33.457Z,36.58
2023-04-15T13:20:59.914Z,36.35
2023-04-15T13:23:26.274Z,36.37
2023-04-15T13:25:52.567Z,36.26
2023-04-15T13:28:18.926Z,36.08
2023-04-15T13:30:45.284Z,36.13
2023-04-15T13:33:11.594Z,36.13
2023-04-15T13:35:37.960Z,36.07
2023-04-15T13:38:04.286Z,36.19
2023-04-15T13:40:30.633Z,36.12
2023-04-15T13:42:56.983Z,36.08
2023-04-15T13:45:23.335Z,36.30
2023-04-15T13:47:49.687Z,35.96
2023-04-15T13:50:16.098Z,35.98
2023-04-15T13:52:42.432Z,36.22
2023-04-15T13:55:19.600Z,36.09
2023-04-15T13:57:48.269Z,35.95
2023-04-15T14:00:14.596Z,35.82
2023-04-15T14:02:41.062Z,35.83
2023-04-15T14:05:07.542Z,35.56
2023-04-15T14:07:33.943Z,35.50
2023-04-15T14:10:00.253Z,35.67
2023-04-15T14:12:26.614Z,35.40
2023-04-15T14:14:53.095Z,35.31
2023-04-15T14:17:19.390Z,35.51
2023-04-15T14:19:45.763Z,35.29
2023-04-15T14:22:12.104Z,35.32
2023-04-15T14:24:38.442Z,35.53
2023-04-15T14:27:04.817Z,35.54
2023-04-15T14:29:31.148Z,35.41
2023-04-15T14:32:11.285Z,35.33
2023-04-15T14:34:39.045Z,35.44
2023-04-15T14:37:05.457Z,35.20
2023-04-15T14:39:31.774Z,34.74
2023-04-15T14:41:58.110Z,34.71
2023-04-15T14:44:24.509Z,34.56
2023-04-15T14:46:50.820Z,34.35
2023-04-15T14:49:17.178Z,34.54
2023-04-15T14:51:43.642Z,34.38
2023-04-15T14:54:10.013Z,34.32
2023-04-15T14:56:36.458Z,34.38
2023-04-15T14:59:03.040Z,34.39
2023-04-15T15:01:29.641Z,34.41
2023-04-15T15:03:56.042Z,34.33
2023-04-15T15:06:22.417Z,34.38
2023-04-15T15:08:48.754Z,34.18
2023-04-15T15:11:15.111Z,34.36
2023-04-15T15:13:41.462Z,34.43
2023-04-15T15:16:07.833Z,34.50
2023-04-15T15:18:34.305Z,34.41
2023-04-15T15:21:00.790Z,34.52
2023-04-15T15:23:27.154Z,34.49
2023-04-15T15:25:53.520Z,34.52
2023-04-15T15:28:19.845Z,34.46
2023-04-15T15:30:46.196Z,34.72
2023-04-15T15:33:12.547Z,34.68
2023-04-15T15:35:38.853Z,34.69
2023-04-15T15:38:05.209Z,34.62
2023-04-15T15:40:31.640Z,34.70
2023-04-15T15:42:58.062Z,34.72
2023-04-15T15:45:24.389Z,34.80
2023-04-15T15:47:50.799Z,34.70
2023-04-15T15:50:17.156Z,34.82
2023-04-15T15:52:43.506Z,34.93
2023-04-15T15:55:09.861Z,34.74
2023-04-15T15:57:36.244Z,34.79
2023-04-15T16:00:11.170Z,34.76
2023-04-15T16:05:08.381Z,34.86
2023-04-15T16:07:34.690Z,34.96
2023-04-15T16:10:01.071Z,35.01
2023-04-15T16:12:27.419Z,34.98
2023-04-15T16:14:53.727Z,35.13
2023-04-15T16:17:20.127Z,35.01
2023-04-15T16:19:58.743Z,35.22
2023-04-15T16:22:26.979Z,35.09
2023-04-15T16:24:53.310Z,35.15
2023-04-15T16:27:19.641Z,35.22
2023-04-15T16:29:46.014Z,35.16
2023-04-15T16:32:12.375Z,35.28
2023-04-15T16:34:38.793Z,35.30
2023-04-15T16:37:05.150Z,35.38
2023-04-15T16:39:31.490Z,35.21
2023-04-15T16:41:57.832Z,35.38
2023-04-15T16:44:24.253Z,35.36
2023-04-15T16:46:50.592Z,35.31
2023-04-15T16:49:16.964Z,35.09
2023-04-15T16:51:43.332Z,35.25
2023-04-15T16:54:09.667Z,35.32
2023-04-15T16:56:36.006Z,35.33
2023-04-15T16:59:02.615Z,35.36
2023-04-15T17:01:29.190Z,35.41
2023-04-15T17:03:56.249Z,35.26
2023-04-15T17:06:22.767Z,35.32
2023-04-15T17:08:49.101Z,35.43
2023-04-15T17:11:15.404Z,35.37
2023-04-15T17:13:41.765Z,35.35
2023-04-15T17:16:08.139Z,35.55
2023-04-15T17:18:34.495Z,35.46
2023-04-15T17:21:00.873Z,35.44
2023-04-15T17:23:27.176Z,35.52
2023-04-15T17:25:53.477Z,35.42
2023-04-15T17:28:19.835Z,35.55
2023-04-15T17:30:46.200Z,35.43
2023-04-15T17:33:26.179Z,35.31
2023-04-15T17:35:58.925Z,35.14
2023-04-15T17:38:25.249Z,35.14
2023-04-15T17:40:51.569Z,35.09
2023-04-15T17:43:17.928Z,35.05
2023-04-15T17:45:44.241Z,35.09
2023-04-15T17:48:10.621Z,35.05
2023-04-15T17:50:37.014Z,35.26
2023-04-15T17:53:03.333Z,35.26
2023-04-15T17:55:29.648Z,35.23
2023-04-15T17:57:56.122Z,35.09
2023-04-15T18:00:22.462Z,35.03
2023-04-15T18:02:49.070Z,35.20
2023-04-15T18:05:15.794Z,34.95
2023-04-15T18:07:42.158Z,35.19
2023-04-15T18:10:08.558Z,35.28
2023-04-15T18:12:34.988Z,35.28
2023-04-15T18:15:01.344Z,35.44
2023-04-15T18:17:27.749Z,35.32
2023-04-15T18:19:54.137Z,35.58
2023-04-15T18:22:20.454Z,35.66
2023-04-15T18:24:46.759Z,35.62
2023-04-15T18:27:13.102Z,35.70
2023-04-15T18:29:39.466Z,35.80
2023-04-15T18:32:05.839Z,35.83
2023-04-15T18:34:32.251Z,35.91
2023-04-15T18:36:58.568Z,36.03
2023-04-15T18:39:24.877Z,35.80
2023-04-15T18:41:51.255Z,35.96
2023-04-15T18:44:17.578Z,36.06
2023-04-15T18:46:43.914Z,36.02
2023-04-15T18:49:10.271Z,36.15
2023-04-15T18:51:36.591Z,36.11
2023-04-15T18:54:02.932Z,36.25
2023-04-15T18:56:29.450Z,36.27
2023-04-15T18:59:27.105Z,36.28
2023-04-15T19:01:42.144Z,36.37
2023-04-15T19:04:08.573Z,36.22
2023-04-15T19:06:34.944Z,36.27
2023-04-15T19:09:01.562Z,36.25
2023-04-15T19:11:27.962Z,36.16
2023-04-15T19:13:54.285Z,36.33
2023-04-15T19:16:20.694Z,36.36
2023-04-15T19:18:47.049Z,36.32
2023-04-15T19:21:13.402Z,36.47
2023-04-15T19:23:39.780Z,36.49
2023-04-15T19:26:06.105Z,36.35
2023-04-15T19:28:32.457Z,36.51
2023-04-15T19:30:58.915Z,36.54
2023-04-15T19:33:25.270Z,36.40
2023-04-15T19:35:51.587Z,36.66
2023-04-15T19:38:17.940Z,36.59
2023-04-15T19:40:44.266Z,36.75
2023-04-15T19:43:10.581Z,36.79
2023-04-15T19:45:36.950Z,36.87
2023-04-15T19:48:03.365Z,36.62
2023-04-15T19:50:29.748Z,36.76
2023-04-15T19:52:56.138Z,36.84
2023-04-15T19:55:22.506Z,36.79
2023-04-15T19:57:48.855Z,36.91
2023-04-15T20:00:15.222Z,36.98
2023-04-15T20:02:41.645Z,37.07
2023-04-15T20:05:08.026Z,37.15
2023-04-15T20:07:34.385Z,37.09
2023-04-15T20:10:00.702Z,37.04
2023-04-15T20:12:50.016Z,37.09
2023-04-15T20:15:13.372Z,37.07
2023-04-15T20:17:39.757Z,37.34
2023-04-15T20:20:06.137Z,37.24
2023-04-15T20:22:32.512Z,37.42
2023-04-15T20:24:58.827Z,37.35
2023-04-15T20:27:25.145Z,37.30
2023-04-15T20:29:51.519Z,37.27
2023-04-15T20:32:17.889Z,37.27
2023-04-15T20:34:44.287Z,37.47
2023-04-15T20:37:10.642Z,37.37
2023-04-15T20:39:37.022Z,37.44
2023-04-15T20:42:03.414Z,37.44
2023-04-15T20:44:29.790Z,37.68
2023-04-15T20:46:56.150Z,37.50
2023-04-15T20:49:22.502Z,37.41
2023-04-15T20:51:48.866Z,37.76
2023-04-15T20:54:15.190Z,37.62
2023-04-15T20:56:41.560Z,37.73
2023-04-15T20:59:07.945Z,37.68
2023-04-15T21:01:34.317Z,37.79
2023-04-15T21:04:00.785Z,37.82
2023-04-15T21:06:27.172Z,37.90
2023-04-15T21:08:53.492Z,37.81
2023-04-15T21:11:38.798Z,37.68
2023-04-15T21:14:06.150Z,38.03
2023-04-15T21:16:32.565Z,37.93
2023-04-15T21:18:58.995Z,38.10
2023-04-15T21:21:25.388Z,37.92
2023-04-15T21:23:51.703Z,37.96
2023-04-15T21:26:18.036Z,37.99
2023-04-15T21:28:44.498Z,38.19
2023-04-15T21:31:10.882Z,38.08
2023-04-15T21:33:37.210Z,38.16
2023-04-15T21:36:03.601Z,38.02
2023-04-15T21:38:29.925Z,38.17
2023-04-15T21:40:56.248Z,38.43
2023-04-15T21:43:22.640Z,38.20
2023-04-15T21:46:21.152Z,38.14
2023-04-15T21:48:35.335Z,38.42
2023-04-15T21:51:01.719Z,38.34
2023-04-15T21:53:28.071Z,38.41
2023-04-15T21:55:54.429Z,38.33
2023-04-15T21:58:20.752Z,38.36
2023-04-15T22:00:47.071Z,38.62
2023-04-15T22:03:13.592Z,38.55
2023-04-15T22:05:40.078Z,38.19
2023-04-15T22:08:06.395Z,38.67
2023-04-15T22:10:32.773Z,38.51
2023-04-15T22:12:59.131Z,38.52
2023-04-15T22:15:25.443Z,38.74
2023-04-15T22:17:51.866Z,38.60
2023-04-15T22:20:18.248Z,38.59
2023-04-15T22:22:44.918Z,38.40
2023-04-15T22:25:11.347Z,38.70
2023-04-15T22:27:37.702Z,38.63
2023-04-15T22:30:04.036Z,38.72
2023-04-15T22:32:30.450Z,38.90
2023-04-15T22:34:56.793Z,38.86
2023-04-15T22:37:23.102Z,39.01
2023-04-15T22:39:49.476Z,38.94
2023-04-15T22:42:15.837Z,38.95
2023-04-15T22:44:42.145Z,38.94
2023-04-15T22:47:08.532Z,39.16
2023-04-15T22:49:34.860Z,39.09
2023-04-15T22:52:01.181Z,38.92
2023-04-15T22:54:27.558Z,38.99
2023-04-15T22:56:53.882Z,38.95
2023-04-15T22:59:20.172Z,38.94
2023-04-15T23:01:46.629Z,39.05
2023-04-15T23:04:23.451Z,39.06
2023-04-15T23:06:53.178Z,39.13
2023-04-15T23:09:19.496Z,39.27
2023-04-15T23:11:45.841Z,39.36
2023-04-15T23:14:12.207Z,39.24
2023-04-15T23:16:38.681Z,39.29
2023-04-15T23:19:05.240Z,39.29
2023-04-15T23:21:31.679Z,39.32
2023-04-15T23:23:58.052Z,39.61
2023-04-15T23:26:24.383Z,39.27
2023-04-15T23:28:50.855Z,39.59
2023-04-15T23:31:17.291Z,39.63
2023-04-15T23:33:43.652Z,39.57
2023-04-15T23:36:10.022Z,39.41
2023-04-15T23:38:36.335Z,39.40
2023-04-15T23:41:02.659Z,39.53
2023-04-15T23:43:29.040Z,39.61
2023-04-15T23:45:55.368Z,39.58
2023-04-15T23:48:21.687Z,39.64
2023-04-15T23:50:48.053Z,39.67
2023-04-15T23:53:14.359Z,39.59
2023-04-15T23:55:40.669Z,39.69
2023-04-15T23:58:07.049Z,39.87
